createdAt,value
2018-04-27T00:00:20.861Z,8.22
2018-04-27T00:02:50.967Z,8.15
2018-04-27T00:05:20.311Z,8.17
2018-04-27T00:07:49.712Z,8.29
2018-04-27T00:10:19.019Z,8.39
2018-04-27T00:12:48.354Z,8.42
2018-04-27T00:15:18.453Z,8.42
2018-04-27T00:17:48.097Z,8.41
2018-04-27T00:20:17.414Z,8.46
2018-04-27T00:22:46.743Z,8.42
2018-04-27T00:25:16.059Z,8.50
2018-04-27T00:27:45.397Z,8.55
2018-04-27T00:30:14.749Z,8.52
2018-04-27T00:32:44.086Z,8.49
2018-04-27T00:35:13.427Z,8.49
2018-04-27T00:37:42.762Z,8.50
2018-04-27T00:40:12.105Z,8.50
2018-04-27T00:42:41.469Z,8.50
2018-04-27T00:45:10.884Z,8.45
2018-04-27T00:47:40.253Z,8.50
2018-04-27T00:50:10.297Z,8.50
2018-04-27T00:52:57.392Z,8.49
2018-04-27T00:55:26.749Z,8.59
2018-04-27T00:57:56.064Z,8.50
2018-04-27T01:00:25.417Z,8.54
2018-04-27T01:02:55.530Z,8.62
2018-04-27T01:05:25.626Z,8.51
2018-04-27T01:07:54.942Z,8.50
2018-04-27T01:10:24.299Z,8.54
2018-04-27T01:12:53.623Z,8.57
2018-04-27T01:15:22.931Z,8.45
2018-04-27T01:17:52.277Z,8.46
2018-04-27T01:20:22.399Z,8.48
2018-04-27T01:22:52.515Z,8.53
2018-04-27T01:25:22.601Z,8.48
2018-04-27T01:27:51.944Z,8.37
2018-04-27T01:30:21.280Z,8.37
2018-04-27T01:32:50.603Z,8.35
2018-04-27T01:35:19.956Z,8.32
2018-04-27T01:37:49.307Z,8.35
2018-04-27T01:40:18.719Z,8.34
2018-04-27T01:42:50.044Z,8.40
2018-04-27T01:45:19.371Z,8.44
2018-04-27T01:47:48.732Z,8.44
2018-04-27T01:50:18.077Z,8.37
2018-04-27T01:52:47.419Z,8.34
2018-04-27T01:55:17.519Z,8.39
2018-04-27T01:57:46.861Z,8.37
2018-04-27T02:00:16.204Z,8.39
2018-04-27T02:02:45.531Z,8.44
2018-04-27T02:05:14.912Z,8.33
2018-04-27T02:07:44.246Z,8.38
2018-04-27T02:10:14.350Z,8.45
2018-04-27T02:12:44.443Z,8.42
2018-04-27T02:15:13.768Z,8.29
2018-04-27T02:17:43.052Z,8.23
2018-04-27T02:20:12.359Z,8.28
2018-04-27T02:22:41.660Z,8.28
2018-04-27T02:25:10.991Z,8.26
2018-04-27T02:27:41.063Z,8.22
2018-04-27T02:30:10.369Z,8.26
2018-04-27T02:32:39.686Z,8.16
2018-04-27T02:35:08.984Z,8.14
2018-04-27T02:37:38.281Z,8.19
2018-04-27T02:40:07.580Z,8.06
2018-04-27T02:42:36.882Z,8.21
2018-04-27T02:45:06.212Z,8.23
2018-04-27T02:47:35.515Z,8.26
2018-04-27T02:50:04.814Z,8.23
2018-04-27T02:52:34.116Z,8.26
2018-04-27T02:55:03.440Z,8.22
2018-04-27T02:57:33.508Z,8.14
2018-04-27T03:00:02.789Z,8.16
2018-04-27T03:02:32.134Z,8.18
2018-04-27T03:05:01.433Z,8.20
2018-04-27T03:07:30.767Z,8.16
2018-04-27T03:10:00.829Z,8.16
2018-04-27T03:12:30.183Z,8.24
2018-04-27T03:14:59.463Z,8.27
2018-04-27T03:17:28.751Z,8.28
2018-04-27T03:19:58.064Z,8.29
2018-04-27T03:22:27.356Z,8.29
2018-04-27T03:24:56.687Z,8.27
2018-04-27T03:27:25.982Z,8.28
2018-04-27T03:29:55.290Z,8.29
2018-04-27T03:32:24.617Z,8.28
2018-04-27T03:34:53.896Z,8.30
2018-04-27T03:37:23.980Z,8.27
2018-04-27T03:39:53.330Z,8.24
2018-04-27T03:42:23.401Z,8.15
2018-04-27T03:44:52.701Z,8.14
2018-04-27T03:47:22.006Z,8.19
2018-04-27T03:49:51.296Z,8.17
2018-04-27T03:52:20.614Z,8.10
2018-04-27T03:54:49.916Z,8.06
2018-04-27T03:57:19.245Z,7.99
2018-04-27T04:00:06.200Z,7.98
2018-04-27T04:02:53.161Z,7.96
2018-04-27T04:05:29.083Z,7.90
2018-04-27T04:07:58.386Z,7.91
2018-04-27T04:10:27.683Z,7.89
2018-04-27T04:12:57.003Z,7.78
2018-04-27T04:15:26.588Z,7.76
2018-04-27T04:17:55.881Z,7.75
2018-04-27T04:20:25.194Z,7.62
2018-04-27T04:22:54.497Z,7.51
2018-04-27T04:25:23.786Z,7.45
2018-04-27T04:27:53.111Z,7.45
2018-04-27T04:30:24.195Z,7.41
2018-04-27T04:32:53.522Z,7.35
2018-04-27T04:35:23.601Z,7.38
2018-04-27T04:37:53.118Z,7.42
2018-04-27T04:40:22.454Z,7.36
2018-04-27T04:42:52.529Z,7.40
2018-04-27T04:45:21.836Z,7.38
2018-04-27T04:47:51.181Z,7.24
2018-04-27T04:50:21.225Z,7.14
2018-04-27T04:52:50.529Z,7.08
2018-04-27T04:55:19.889Z,6.99
2018-04-27T04:57:49.181Z,6.99
2018-04-27T05:00:18.490Z,7.02
2018-04-27T05:02:47.872Z,7.04
2018-04-27T05:05:17.909Z,7.07
2018-04-27T05:07:47.212Z,7.16
2018-04-27T05:10:16.532Z,7.18
2018-04-27T05:12:45.826Z,7.16
2018-04-27T05:15:15.906Z,7.25
2018-04-27T05:17:45.198Z,7.29
2018-04-27T05:20:14.280Z,7.29
2018-04-27T05:22:43.574Z,7.38
2018-04-27T05:25:12.876Z,7.44
2018-04-27T05:27:42.190Z,7.45
2018-04-27T05:30:12.275Z,7.56
2018-04-27T05:32:41.577Z,7.69
2018-04-27T05:35:10.878Z,7.75
2018-04-27T05:37:40.935Z,7.89
2018-04-27T05:40:10.235Z,8.02
2018-04-27T05:42:39.565Z,8.16
2018-04-27T05:45:08.865Z,8.31
2018-04-27T05:47:38.178Z,8.41
2018-04-27T05:50:07.508Z,8.52
2018-04-27T05:52:36.823Z,8.58
2018-04-27T05:55:06.878Z,8.64
2018-04-27T05:57:36.166Z,8.76
2018-04-27T06:00:05.469Z,8.80
2018-04-27T06:02:34.790Z,8.88
2018-04-27T06:05:04.152Z,9.00
2018-04-27T06:07:34.201Z,9.00
2018-04-27T06:10:03.621Z,9.06
2018-04-27T06:12:32.823Z,9.13
2018-04-27T06:15:02.125Z,9.21
2018-04-27T06:17:31.428Z,9.30
2018-04-27T06:20:00.723Z,9.39
2018-04-27T06:22:30.022Z,9.54
2018-04-27T06:24:59.338Z,9.66
2018-04-27T06:27:28.648Z,9.76
2018-04-27T06:29:58.652Z,9.89
2018-04-27T06:32:27.985Z,10.10
2018-04-27T06:34:57.294Z,10.32
2018-04-27T06:37:26.646Z,10.47
2018-04-27T06:39:55.965Z,10.59
2018-04-27T06:42:25.251Z,10.82
2018-04-27T06:44:54.562Z,10.91
2018-04-27T06:47:24.041Z,10.99
2018-04-27T06:49:53.362Z,11.13
2018-04-27T06:52:22.797Z,11.32
2018-04-27T06:54:52.819Z,11.50
2018-04-27T06:57:23.443Z,11.56
2018-04-27T06:59:52.775Z,11.55
2018-04-27T07:02:22.858Z,11.73
2018-04-27T07:04:52.167Z,11.92
2018-04-27T07:07:21.483Z,11.93
2018-04-27T07:09:50.806Z,12.11
2018-04-27T07:12:20.935Z,12.09
2018-04-27T07:14:50.234Z,12.23
2018-04-27T07:17:20.351Z,12.43
2018-04-27T07:19:49.645Z,12.52
2018-04-27T07:22:18.970Z,12.54
2018-04-27T07:24:49.078Z,12.85
2018-04-27T07:27:18.380Z,12.88
2018-04-27T07:29:48.439Z,13.03
2018-04-27T07:32:18.356Z,13.08
2018-04-27T07:34:47.676Z,13.41
2018-04-27T07:37:17.003Z,13.67
2018-04-27T07:39:46.388Z,14.05
2018-04-27T07:42:15.606Z,14.08
2018-04-27T07:44:44.946Z,14.12
2018-04-27T07:47:15.011Z,14.12
2018-04-27T07:49:44.352Z,14.11
2018-04-27T07:52:14.418Z,14.35
2018-04-27T07:54:43.724Z,14.53
2018-04-27T07:57:13.046Z,14.87
2018-04-27T07:59:42.347Z,14.85
2018-04-27T08:02:11.655Z,14.61
2018-04-27T08:04:40.992Z,14.70
2018-04-27T08:07:11.107Z,14.71
2018-04-27T08:09:40.431Z,14.68
2018-04-27T08:12:09.828Z,14.78
2018-04-27T08:14:39.072Z,14.73
2018-04-27T08:17:08.399Z,14.75
2018-04-27T08:19:37.700Z,14.50
2018-04-27T08:22:07.020Z,14.68
2018-04-27T08:24:37.123Z,14.56
2018-04-27T08:27:06.422Z,14.76
2018-04-27T08:29:35.761Z,14.85
2018-04-27T08:32:05.822Z,15.31
2018-04-27T08:34:35.163Z,15.47
2018-04-27T08:37:05.249Z,15.53
2018-04-27T08:39:34.589Z,15.54
2018-04-27T08:42:03.935Z,15.64
2018-04-27T08:44:34.100Z,15.61
2018-04-27T08:47:03.965Z,15.84
2018-04-27T08:49:33.283Z,15.86
2018-04-27T08:52:02.617Z,15.72
2018-04-27T08:54:32.473Z,15.73
2018-04-27T08:57:01.789Z,15.38
2018-04-27T08:59:31.117Z,15.39
2018-04-27T09:02:00.466Z,15.60
2018-04-27T09:04:30.557Z,15.77
2018-04-27T09:06:59.884Z,16.03
2018-04-27T09:09:29.971Z,16.08
2018-04-27T09:11:59.279Z,16.02
2018-04-27T09:14:28.582Z,15.89
2018-04-27T09:16:57.929Z,15.95
2018-04-27T09:19:27.989Z,16.05
2018-04-27T09:21:57.318Z,16.19
2018-04-27T09:24:26.646Z,16.33
2018-04-27T09:26:56.817Z,16.07
2018-04-27T09:29:26.058Z,16.68
2018-04-27T09:31:55.372Z,16.35
2018-04-27T09:34:24.776Z,16.49
2018-04-27T09:36:54.854Z,16.50
2018-04-27T09:39:24.174Z,16.66
2018-04-27T09:41:53.488Z,16.93
2018-04-27T09:44:23.100Z,16.59
2018-04-27T09:46:52.417Z,16.13
2018-04-27T09:49:22.498Z,16.21
2018-04-27T09:51:51.812Z,16.17
2018-04-27T09:54:21.118Z,16.30
2018-04-27T09:56:50.434Z,16.73
2018-04-27T09:59:20.523Z,16.44
2018-04-27T10:01:49.851Z,16.71
2018-04-27T10:04:19.927Z,16.82
2018-04-27T10:06:49.226Z,16.98
2018-04-27T10:09:18.576Z,17.22
2018-04-27T10:11:47.889Z,17.42
2018-04-27T10:14:17.965Z,17.25
2018-04-27T10:16:47.313Z,16.98
2018-04-27T10:19:17.376Z,16.92
2018-04-27T10:21:46.697Z,17.10
2018-04-27T10:24:16.007Z,17.05
2018-04-27T10:26:45.329Z,17.14
2018-04-27T10:29:15.398Z,17.43
2018-04-27T10:31:44.727Z,17.78
2018-04-27T10:34:14.030Z,17.48
2018-04-27T10:36:43.330Z,17.35
2018-04-27T10:39:12.664Z,17.66
2018-04-27T10:41:42.725Z,18.29
2018-04-27T10:44:12.021Z,18.53
2018-04-27T10:46:41.338Z,18.71
2018-04-27T10:49:10.654Z,18.55
2018-04-27T10:51:39.951Z,18.58
2018-04-27T10:54:09.659Z,18.65
2018-04-27T10:56:38.945Z,18.64
2018-04-27T10:59:08.265Z,18.65
2018-04-27T11:01:37.588Z,18.63
2018-04-27T11:04:07.549Z,18.60
2018-04-27T11:06:36.866Z,18.30
2018-04-27T11:09:06.185Z,18.42
2018-04-27T11:11:35.577Z,18.40
2018-04-27T11:14:04.821Z,18.16
2018-04-27T11:16:34.120Z,18.26
2018-04-27T11:19:03.436Z,18.49
2018-04-27T11:21:33.521Z,18.12
2018-04-27T11:24:02.934Z,18.35
2018-04-27T11:26:32.935Z,18.45
2018-04-27T11:29:02.259Z,18.97
2018-04-27T11:31:31.575Z,18.70
2018-04-27T11:34:00.869Z,18.78
2018-04-27T11:36:30.181Z,19.43
2018-04-27T11:38:59.503Z,19.72
2018-04-27T11:41:28.939Z,20.55
2018-04-27T11:43:58.243Z,20.12
2018-04-27T11:46:27.569Z,19.31
2018-04-27T11:48:56.865Z,19.31
2018-04-27T11:51:26.188Z,19.35
2018-04-27T11:53:55.491Z,19.62
2018-04-27T11:56:24.822Z,20.05
2018-04-27T11:58:54.896Z,20.85
2018-04-27T12:01:24.206Z,21.54
2018-04-27T12:03:53.516Z,21.84
2018-04-27T12:06:22.823Z,21.51
2018-04-27T12:08:52.138Z,20.47
2018-04-27T12:11:22.220Z,20.04
2018-04-27T12:13:51.541Z,20.17
2018-04-27T12:16:20.835Z,20.10
2018-04-27T12:18:50.134Z,20.31
2018-04-27T12:21:19.464Z,20.18
2018-04-27T12:23:48.758Z,20.13
2018-04-27T12:26:18.089Z,20.37
2018-04-27T12:28:48.174Z,19.69
2018-04-27T12:31:17.621Z,19.54
2018-04-27T12:33:47.568Z,19.63
2018-04-27T12:36:16.875Z,19.49
2018-04-27T12:38:46.244Z,19.04
2018-04-27T12:41:15.520Z,18.87
2018-04-27T12:43:45.591Z,18.82
2018-04-27T12:46:14.890Z,19.18
2018-04-27T12:48:44.245Z,19.22
2018-04-27T12:51:13.572Z,19.06
2018-04-27T12:53:43.641Z,18.60
2018-04-27T12:56:12.962Z,18.99
2018-04-27T12:58:42.262Z,19.56
2018-04-27T13:01:11.562Z,20.18
2018-04-27T13:03:40.884Z,20.27
2018-04-27T13:06:10.942Z,20.69
2018-04-27T13:08:40.276Z,20.91
2018-04-27T13:11:09.575Z,21.14
2018-04-27T13:13:39.885Z,21.45
2018-04-27T13:16:09.203Z,21.13
2018-04-27T13:18:38.543Z,21.11
2018-04-27T13:21:07.859Z,21.03
2018-04-27T13:23:37.159Z,20.10
2018-04-27T13:26:06.463Z,20.58
2018-04-27T13:28:35.782Z,20.82
2018-04-27T13:31:05.083Z,20.72
2018-04-27T13:33:34.398Z,19.82
2018-04-27T13:36:03.736Z,19.88
2018-04-27T13:38:33.053Z,20.26
2018-04-27T13:41:02.368Z,20.54
2018-04-27T13:43:32.426Z,20.31
2018-04-27T13:46:01.741Z,19.72
2018-04-27T13:48:31.056Z,19.91
2018-04-27T13:51:00.370Z,20.01
2018-04-27T13:53:29.702Z,20.19
2018-04-27T13:55:59.304Z,20.12
2018-04-27T13:58:29.358Z,20.35
2018-04-27T14:00:58.698Z,20.77
2018-04-27T14:03:28.010Z,21.37
2018-04-27T14:05:57.314Z,22.07
2018-04-27T14:08:26.629Z,22.52
2018-04-27T14:10:55.947Z,22.92
2018-04-27T14:13:26.007Z,22.60
2018-04-27T14:15:56.092Z,22.75
2018-04-27T14:18:25.421Z,23.15
2018-04-27T14:20:54.729Z,22.92
2018-04-27T14:23:25.601Z,22.44
2018-04-27T14:25:54.890Z,22.58
2018-04-27T14:28:24.181Z,22.19
2018-04-27T14:30:53.524Z,21.97
2018-04-27T14:33:22.810Z,22.30
2018-04-27T14:35:52.149Z,22.60
2018-04-27T14:38:22.015Z,22.53
2018-04-27T14:40:51.326Z,22.29
2018-04-27T14:43:20.647Z,22.36
2018-04-27T14:45:50.729Z,21.85
2018-04-27T14:48:20.061Z,21.66
2018-04-27T14:50:49.347Z,21.65
2018-04-27T14:53:18.677Z,21.32
2018-04-27T14:55:47.994Z,21.00
2018-04-27T14:58:17.295Z,20.75
2018-04-27T15:00:47.379Z,20.93
2018-04-27T15:03:21.978Z,20.79
2018-04-27T15:05:56.788Z,20.47
2018-04-27T15:08:31.315Z,20.78
2018-04-27T15:11:05.957Z,20.87
2018-04-27T15:13:40.643Z,20.55
2018-04-27T15:16:15.210Z,20.32
2018-04-27T15:18:49.877Z,19.76
2018-04-27T15:21:24.461Z,19.71
2018-04-27T15:23:59.680Z,19.89
2018-04-27T15:26:34.763Z,19.87
2018-04-27T15:29:09.394Z,19.93
2018-04-27T15:31:44.007Z,19.92
2018-04-27T15:34:18.542Z,20.06
2018-04-27T15:36:52.949Z,20.08
2018-04-27T15:39:27.379Z,20.31
2018-04-27T15:42:01.998Z,20.16
2018-04-27T15:44:36.746Z,19.89
2018-04-27T15:47:11.280Z,19.74
2018-04-27T15:49:45.977Z,19.53
2018-04-27T15:52:20.634Z,19.54
2018-04-27T15:54:55.222Z,19.61
2018-04-27T15:57:29.915Z,20.23
2018-04-27T16:00:04.556Z,20.76
2018-04-27T16:02:38.982Z,20.65
2018-04-27T16:05:13.554Z,20.86
2018-04-27T16:07:47.971Z,20.66
2018-04-27T16:10:22.622Z,20.41
2018-04-27T16:15:55.306Z,20.08
2018-04-27T16:18:29.862Z,20.31
2018-04-27T16:21:04.537Z,20.34
2018-04-27T16:23:39.205Z,20.42
2018-04-27T16:26:14.518Z,20.68
2018-04-27T16:28:49.134Z,20.51
2018-04-27T16:31:23.792Z,20.53
2018-04-27T16:33:58.410Z,20.28
2018-04-27T16:36:33.783Z,20.29
2018-04-27T16:39:08.274Z,20.34
2018-04-27T16:41:42.751Z,20.21
2018-04-27T16:44:17.410Z,20.29
2018-04-27T16:46:52.046Z,20.15
2018-04-27T16:49:27.229Z,20.02
2018-04-27T16:52:01.704Z,19.88
2018-04-27T16:54:36.397Z,19.57
2018-04-27T16:57:10.810Z,19.48
2018-04-27T16:59:45.363Z,19.31
2018-04-27T17:02:20.130Z,19.26
2018-04-27T17:04:55.477Z,19.09
2018-04-27T17:07:30.817Z,19.11
2018-04-27T17:10:05.350Z,19.10
2018-04-27T17:12:39.934Z,19.16
2018-04-27T17:15:14.497Z,19.22
2018-04-27T17:17:49.938Z,19.20
2018-04-27T17:20:24.565Z,19.14
2018-04-27T17:22:59.966Z,19.01
2018-04-27T17:25:34.608Z,18.97
2018-04-27T17:28:09.270Z,18.88
2018-04-27T17:30:43.857Z,18.81
2018-04-27T17:33:18.794Z,18.77
2018-04-27T17:35:53.307Z,18.75
2018-04-27T17:38:28.487Z,18.76
2018-04-27T17:41:03.028Z,18.74
2018-04-27T17:43:37.701Z,18.71
2018-04-27T17:46:12.268Z,18.63
2018-04-27T17:48:46.957Z,18.63
2018-04-27T17:51:21.641Z,18.57
2018-04-27T17:53:56.326Z,18.60
2018-04-27T17:59:04.824Z,18.58
2018-04-27T18:01:39.395Z,18.47
2018-04-27T18:04:14.063Z,18.38
2018-04-27T18:06:49.300Z,18.37
2018-04-27T18:09:23.866Z,18.26
2018-04-27T18:11:59.107Z,18.17
2018-04-27T18:14:33.607Z,18.04
2018-04-27T18:17:08.187Z,17.98
2018-04-27T18:19:42.865Z,17.82
2018-04-27T18:22:17.454Z,17.81
2018-04-27T18:24:52.114Z,17.70
2018-04-27T18:27:26.506Z,17.62
2018-04-27T18:30:01.139Z,17.51
2018-04-27T18:32:35.812Z,17.41
2018-04-27T18:35:10.191Z,17.32
2018-04-27T18:37:45.531Z,17.26
2018-04-27T18:40:20.131Z,17.14
2018-04-27T18:42:54.780Z,17.07
2018-04-27T18:45:29.139Z,17.02
2018-04-27T18:48:09.420Z,16.94
2018-04-27T18:50:44.700Z,16.84
2018-04-27T18:53:19.145Z,16.79
2018-04-27T18:55:53.683Z,16.74
2018-04-27T18:58:28.343Z,16.67
2018-04-27T19:01:02.876Z,16.59
2018-04-27T19:03:37.564Z,16.51
2018-04-27T19:06:12.114Z,16.45
2018-04-27T19:08:46.639Z,16.37
2018-04-27T19:11:22.028Z,16.30
2018-04-27T19:13:56.498Z,16.24
2018-04-27T19:16:25.512Z,16.11
2018-04-27T19:18:56.802Z,16.02
2018-04-27T19:21:26.114Z,15.95
2018-04-27T19:23:57.364Z,15.90
2018-04-27T19:26:27.613Z,15.88
2018-04-27T19:28:57.708Z,15.91
2018-04-27T19:31:26.999Z,15.95
2018-04-27T19:33:57.177Z,15.92
2018-04-27T19:36:26.489Z,15.95
2018-04-27T19:38:55.814Z,15.97
2018-04-27T19:41:25.122Z,15.96
2018-04-27T19:43:54.438Z,15.96
2018-04-27T19:46:24.297Z,15.95
2018-04-27T19:48:53.599Z,15.90
2018-04-27T19:51:22.893Z,15.88
2018-04-27T19:53:52.222Z,15.79
2018-04-27T19:56:21.509Z,15.76
2018-04-27T19:58:50.940Z,15.76
2018-04-27T20:01:20.271Z,15.74
2018-04-27T20:03:49.566Z,15.75
2018-04-27T20:06:18.867Z,15.75
2018-04-27T20:08:48.202Z,15.77
2018-04-27T20:11:18.387Z,15.74
2018-04-27T20:13:47.661Z,15.69
2018-04-27T20:16:30.511Z,15.66
2018-04-27T20:18:59.848Z,15.63
2018-04-27T20:21:29.928Z,15.58
2018-04-27T20:24:04.010Z,15.54
2018-04-27T20:26:33.341Z,15.49
2018-04-27T20:29:03.198Z,15.42
2018-04-27T20:31:32.517Z,15.43
2018-04-27T20:34:01.807Z,15.43
2018-04-27T20:36:31.923Z,15.40
2018-04-27T20:39:02.031Z,15.34
2018-04-27T20:41:31.353Z,15.30
2018-04-27T20:44:01.488Z,15.26
2018-04-27T20:46:31.498Z,15.23
2018-04-27T20:49:01.571Z,15.17
2018-04-27T20:51:30.902Z,15.14
2018-04-27T20:54:01.786Z,15.08
2018-04-27T20:56:47.592Z,15.04
2018-04-27T20:59:16.899Z,15.02
2018-04-27T21:01:46.253Z,14.98
2018-04-27T21:04:16.324Z,14.96
2018-04-27T21:06:45.699Z,14.92
2018-04-27T21:09:14.953Z,14.88
2018-04-27T21:11:45.556Z,14.83
2018-04-27T21:14:14.988Z,14.78
2018-04-27T21:16:44.201Z,14.73
2018-04-27T21:19:13.496Z,14.69
2018-04-27T21:21:43.591Z,14.68
2018-04-27T21:24:12.939Z,14.67
2018-04-27T21:26:43.022Z,14.65
2018-04-27T21:29:27.107Z,14.56
2018-04-27T21:31:57.178Z,14.46
2018-04-27T21:34:26.505Z,14.41
2018-04-27T21:36:56.467Z,14.40
2018-04-27T21:39:26.662Z,14.30
2018-04-27T21:42:00.622Z,14.26
2018-04-27T21:44:31.478Z,14.21
2018-04-27T21:47:26.179Z,14.12
2018-04-27T21:49:55.499Z,14.06
2018-04-27T21:52:27.673Z,14.02
2018-04-27T21:54:57.765Z,14.00
2018-04-27T21:58:06.597Z,13.89
2018-04-27T22:00:35.919Z,13.75
2018-04-27T22:03:11.791Z,13.67
2018-04-27T22:05:50.166Z,13.56
2018-04-27T22:11:47.383Z,13.50
2018-04-27T22:14:27.053Z,13.46
2018-04-27T22:20:08.603Z,13.60
2018-04-27T22:22:38.913Z,13.66
2018-04-27T22:25:15.974Z,13.64
2018-04-27T22:27:46.681Z,13.72
2018-04-27T22:30:22.046Z,13.74
2018-04-27T22:32:51.383Z,13.71
2018-04-27T22:35:36.440Z,13.84
2018-04-27T22:38:05.758Z,13.90
2018-04-27T22:40:39.773Z,14.02
2018-04-27T22:43:23.971Z,14.13
2018-04-27T22:46:03.457Z,14.16
2018-04-27T22:48:41.604Z,14.14
2018-04-27T22:51:30.759Z,14.25
2018-04-27T22:54:02.433Z,14.33
2018-04-27T22:59:32.424Z,14.45
2018-04-27T23:02:21.214Z,14.38
2018-04-27T23:04:58.322Z,14.57
2018-04-27T23:07:37.218Z,14.65
2018-04-27T23:10:07.287Z,14.67
2018-04-27T23:12:52.116Z,14.61
2018-04-27T23:15:21.449Z,14.61
2018-04-27T23:17:51.518Z,14.65
2018-04-27T23:20:24.579Z,14.69
2018-04-27T23:22:59.718Z,14.66
2018-04-27T23:25:29.059Z,14.73
2018-04-27T23:27:59.063Z,14.73
2018-04-27T23:30:31.968Z,14.68
2018-04-27T23:33:01.266Z,14.70
2018-04-27T23:35:30.588Z,14.71
2018-04-27T23:37:59.919Z,14.81
2018-04-27T23:40:30.025Z,14.76
2018-04-27T23:42:59.325Z,14.83
2018-04-27T23:45:28.643Z,14.77
2018-04-27T23:47:58.707Z,14.71
2018-04-27T23:50:28.035Z,14.72
2018-04-27T23:52:57.353Z,14.83
2018-04-27T23:55:26.668Z,14.87
2018-04-27T23:57:56.780Z,14.80
